Flight Track Log - Related Links

Times and Time Zones

All times are in EDT time to prevent confusion due to time zone crossing. See the SKW4841 flight status page for this flight to view local times or setup timezone preferences in your user account.

Time Position Orientation Groundspeed Altitude Reporting Facility
EDT Latitude Longitude Course Direction KTS MPH feet Rate Location/Type
Sun 04:03:27 PM 44.8667 -93.1667 341° North 153 176 2,100  Level Minneapolis TRACON
Sun 04:04:06 PM 44.8703 -93.1275 83° East 188 216 3,100 1,842 Climbing Minneapolis Center
Sun 04:05:08 PM 44.8636 -93.0358 96° East 241 277 5,200 2,419 Climbing Minneapolis Center
Sun 04:06:00 PM 45.2313 -93.4086 343° North  Level FlightAware Approximate
Sun 04:06:10 PM 44.9281 -92.9950 24° Northeast 279 321 8,100  Level Minneapolis Center
Sun 04:07:00 PM 45.3227 -93.4570 339° North  Level FlightAware Approximate
Sun 04:07:13 PM 45.0061 -93.0072 354° North 285 328 10,700  Level Minneapolis Center
Sun 04:08:00 PM 45.4138 -93.5069 341° North  Level FlightAware Approximate
Sun 04:08:15 PM 45.0900 -93.0164 356° North 305 351 12,700  Level Minneapolis Center
Sun 04:09:17 PM 45.1989 -93.0239 357° North 326 375 14,800 1,935 Climbing Minneapolis Center
Sun 04:10:19 PM 45.2922 -93.0294 358° North 336 387 16,700 1,742 Climbing Minneapolis Center
Sun 04:11:21 PM 45.3878 -93.0367 357° North 345 397 18,400 1,452 Climbing Minneapolis Center
Sun 04:12:23 PM 45.4850 -93.0406 358° North 349 402 19,700 1,403 Climbing Minneapolis Center
Sun 04:13:25 PM 45.5839 -93.0422 359° North 355 409 21,300 1,355 Climbing Minneapolis Center
Sun 04:14:27 PM 45.6839 -93.0447 359° North 358 412 22,500 1,306 Climbing Minneapolis Center
Sun 04:15:29 PM 45.8031 -93.0558 356° North 360 414 24,000 1,258 Climbing Minneapolis Center
Sun 04:16:31 PM 45.8656 -93.1675 309° West 358 412 25,100 968 Climbing Minneapolis Center
Sun 04:17:33 PM 45.9289 -93.2797 309° West 362 417 26,000 435 Climbing Minneapolis Center
Sun 04:18:35 PM 45.9936 -93.3944 309° West 368 423 26,000  Level Minneapolis Center
Sun 04:19:38 PM 46.0606 -93.5156 309° West 380 437 26,000  Level Minneapolis Center
Sun 04:20:40 PM 46.1375 -93.6581 308° West 379 436 26,000  Level Minneapolis Center
Sun 04:21:42 PM 46.2014 -93.7753 308° West 375 432 26,000  Level Minneapolis Center
Sun 04:22:44 PM 46.2647 -93.8917 308° West 375 432 26,000  Level Minneapolis Center
Sun 04:23:46 PM 46.3294 -94.0119 308° West 377 434 26,000  Level Minneapolis Center
Sun 04:24:48 PM 46.3928 -94.1292 308° West 375 432 26,000  Level Minneapolis Center
Sun 04:25:50 PM 46.4558 -94.2467 308° West 371 427 26,000  Level Minneapolis Center
Sun 04:26:52 PM 46.5300 -94.3856 308° West 367 422 26,000  Level Minneapolis Center
Sun 04:27:54 PM 46.5922 -94.5025 308° West 366 421 26,000  Level Minneapolis Center
Sun 04:28:56 PM 46.6556 -94.6206 308° West 367 422 26,000  Level Minneapolis Center
Sun 04:29:58 PM 46.7178 -94.7369 308° West 367 422 26,000  Level Minneapolis Center
Sun 04:31:00 PM 46.7778 -94.8536 307° West 362 417 26,000  Level Minneapolis Center
Sun 04:32:02 PM 46.8403 -94.9728 308° West 365 420 26,000  Level Minneapolis Center
Sun 04:33:04 PM 46.9167 -95.1194 307° West 376 433 26,000  Level Minneapolis Center
Sun 04:34:07 PM 46.9814 -95.2442 307° West 381 438 26,000  Level Minneapolis Center
Sun 04:35:08 PM 47.0336 -95.3447 307° West 385 443 26,000  Level Minneapolis Center
Sun 04:36:11 PM 47.1117 -95.4961 307° West 388 447 26,000  Level Minneapolis Center
Sun 04:37:13 PM 47.1772 -95.6247 307° West 391 450 26,000 -1,238 Level Minneapolis Center
Sun 04:38:17 PM 47.2564 -95.7836 306° West 400 460 23,400 -2,476 Descending Minneapolis Center
Sun 04:39:19 PM 47.3239 -95.9117 308° West 407 468 20,800 -2,758 Descending Minneapolis Center
Sun 04:40:21 PM 47.3967 -96.0506 308° West 388 447 17,700 -2,855 Descending Minneapolis Center
Sun 04:41:23 PM 47.4603 -96.1786 306° West 373 429 14,900 -2,592 Descending Minneapolis Center
Sun 04:42:26 PM 47.5183 -96.2950 306° West 367 422 12,300 -2,352 Descending Minneapolis Center
Sun 04:43:28 PM 47.5903 -96.4053 314° West 357 411 10,000 -1,694 Descending Minneapolis Center
Sun 04:44:30 PM 47.6542 -96.4872 319° Northwest 290 334 8,800 -1,597 Descending Minneapolis Center
Sun 04:45:32 PM 47.7131 -96.5667 318° Northwest 276 318 6,700 -1,839 Descending Minneapolis Center
Sun 04:46:34 PM 47.7642 -96.6386 317° Northwest 273 314 5,000 -1,306 Descending Minneapolis Center
Sun 04:47:36 PM 47.8186 -96.7181 316° Northwest 274 315 4,000 -532 Descending Minneapolis Center
Sun 04:48:38 PM 47.8789 -96.8022 317° Northwest 264 304 3,900 -484 Descending Minneapolis Center
Sun 04:49:40 PM 47.9256 -96.8667 317° Northwest 250 288 3,000 -532 Descending Minneapolis Center
Sun 04:50:42 PM 47.9650 -96.9361 310° West 238 274 2,800 -97 Descending Minneapolis Center
Sun 04:51:44 PM 48.0000 -97.0081 306° West 227 261 2,800  Level Minneapolis Center
Sun 04:52:46 PM 48.0303 -97.0806 302° West 218 251 2,800  Level Minneapolis Center

Login

Don't have an account? Register now (free) for customized features, flight alerts, and more!